createdAt,value
2022-08-11T00:03:16.913Z,2.63
2022-08-11T00:05:48.470Z,2.83
2022-08-11T00:08:23.510Z,2.72
2022-08-11T00:10:55.993Z,2.35
2022-08-11T00:13:32.267Z,2.35
2022-08-11T00:16:00.795Z,2.70
2022-08-11T00:18:29.840Z,2.65
2022-08-11T00:21:01.496Z,2.85
2022-08-11T00:23:29.704Z,2.78
2022-08-11T00:25:59.020Z,2.72
2022-08-11T00:28:29.320Z,2.90
2022-08-11T00:31:00.027Z,2.70
2022-08-11T00:33:41.868Z,3.03
2022-08-11T00:36:20.833Z,2.80
2022-08-11T00:38:53.539Z,2.78
2022-08-11T00:41:33.453Z,2.60
2022-08-11T00:44:27.805Z,2.75
2022-08-11T00:47:06.264Z,2.70
2022-08-11T00:49:47.710Z,2.72
2022-08-11T00:52:40.381Z,3.08
2022-08-11T00:55:47.297Z,2.80
2022-08-11T00:59:34.391Z,2.72
2022-08-11T01:02:07.064Z,2.80
2022-08-11T01:05:12.581Z,2.83
2022-08-11T01:08:30.495Z,3.00
2022-08-11T01:11:26.045Z,2.70
2022-08-11T01:14:34.206Z,2.95
2022-08-11T01:17:35.790Z,3.50
2022-08-11T01:20:45.904Z,2.90
2022-08-11T01:23:55.040Z,3.00
2022-08-11T01:26:55.247Z,2.83
2022-08-11T01:29:55.600Z,2.95
2022-08-11T01:33:06.736Z,2.90
2022-08-11T01:36:03.549Z,2.88
2022-08-11T01:39:04.155Z,2.80
2022-08-11T01:42:27.993Z,2.83
2022-08-11T01:45:31.554Z,3.00
2022-08-11T01:48:06.136Z,2.88
2022-08-11T01:50:47.463Z,2.63
2022-08-11T01:53:29.630Z,3.33
2022-08-11T01:56:12.059Z,2.80
2022-08-11T01:58:49.415Z,3.10
2022-08-11T02:01:34.779Z,3.17
2022-08-11T02:04:17.117Z,3.38
2022-08-11T02:06:56.380Z,3.40
2022-08-11T02:09:49.715Z,3.15
2022-08-11T02:12:32.112Z,3.05
2022-08-11T02:15:09.128Z,2.85
2022-08-11T02:17:49.360Z,2.88
2022-08-11T02:20:41.541Z,2.85
2022-08-11T02:24:04.489Z,3.20
2022-08-11T02:26:36.565Z,3.05
2022-08-11T02:29:12.500Z,3.17
2022-08-11T02:32:25.008Z,3.33
2022-08-11T02:35:04.843Z,3.00
2022-08-11T02:37:45.164Z,3.03
2022-08-11T02:40:35.433Z,2.85
2022-08-11T02:43:15.072Z,3.45
2022-08-11T02:45:55.594Z,2.95
2022-08-11T02:48:54.967Z,3.03
2022-08-11T02:51:31.265Z,2.72
2022-08-11T02:54:09.795Z,3.35
2022-08-11T02:56:52.265Z,3.35
2022-08-11T02:59:51.261Z,3.38
2022-08-11T03:02:34.656Z,3.15
2022-08-11T03:05:11.876Z,3.10
2022-08-11T03:07:49.319Z,3.00
2022-08-11T03:10:24.291Z,3.30
2022-08-11T03:13:19.913Z,3.03
2022-08-11T03:16:19.137Z,3.08
2022-08-11T03:19:02.678Z,3.22
2022-08-11T03:21:52.334Z,2.92
2022-08-11T03:24:34.998Z,3.20
2022-08-11T03:27:08.524Z,3.33
2022-08-11T03:29:48.873Z,3.40
2022-08-11T03:32:27.412Z,3.22
2022-08-11T03:34:57.421Z,3.03
2022-08-11T03:37:50.901Z,3.42
2022-08-11T03:42:01.948Z,3.78
2022-08-11T03:44:09.041Z,3.20
2022-08-11T03:46:57.445Z,3.25
2022-08-11T03:49:35.006Z,3.30
2022-08-11T03:52:14.293Z,3.33
2022-08-11T03:54:55.457Z,3.22
2022-08-11T03:58:03.712Z,3.53
2022-08-11T04:01:00.572Z,3.05
2022-08-11T04:04:13.060Z,3.47
2022-08-11T04:07:29.596Z,3.10
2022-08-11T04:10:23.277Z,3.65
2022-08-11T04:13:36.346Z,3.30
2022-08-11T04:16:42.153Z,3.33
2022-08-11T04:19:45.904Z,3.17
2022-08-11T04:22:48.483Z,3.47
2022-08-11T04:25:57.561Z,3.40
2022-08-11T04:28:51.096Z,3.33
2022-08-11T04:31:44.056Z,3.40
2022-08-11T04:34:52.081Z,3.20
2022-08-11T04:37:53.622Z,3.25
2022-08-11T04:41:19.494Z,3.58
2022-08-11T04:44:21.461Z,3.35
2022-08-11T04:47:05.162Z,3.55
2022-08-11T04:50:13.761Z,3.50
2022-08-11T04:53:22.152Z,3.50
2022-08-11T04:56:26.135Z,3.55
2022-08-11T04:59:29.997Z,2.90
2022-08-11T05:02:38.598Z,2.88
2022-08-11T05:05:32.701Z,2.30
2022-08-11T05:08:51.480Z,3.03
2022-08-11T05:11:44.977Z,2.60
2022-08-11T05:14:51.053Z,2.40
2022-08-11T05:17:46.466Z,2.80
2022-08-11T05:20:32.288Z,2.58
2022-08-11T05:23:24.063Z,2.50
2022-08-11T05:26:46.149Z,2.50
2022-08-11T05:29:24.356Z,2.22
2022-08-11T05:32:19.580Z,2.40
2022-08-11T05:34:53.883Z,2.60
2022-08-11T05:37:31.934Z,2.47
2022-08-11T05:40:24.380Z,2.80
2022-08-11T05:43:16.129Z,2.83
2022-08-11T05:46:06.251Z,2.45
2022-08-11T05:48:55.567Z,2.75
2022-08-11T05:51:54.663Z,2.58
2022-08-11T05:54:42.138Z,3.10
2022-08-11T05:57:48.521Z,2.88
2022-08-11T06:00:10.590Z,2.35
2022-08-11T06:02:43.199Z,2.25
2022-08-11T06:05:12.628Z,2.22
2022-08-11T06:07:49.138Z,2.13
2022-08-11T06:10:29.985Z,2.15
2022-08-11T06:13:00.988Z,2.13
2022-08-11T06:15:35.087Z,2.20
2022-08-11T06:18:13.036Z,2.15
2022-08-11T06:20:48.653Z,1.90
2022-08-11T06:23:19.583Z,2.10
2022-08-11T06:25:48.400Z,1.88
2022-08-11T06:28:20.715Z,2.55
2022-08-11T06:30:51.376Z,1.80
2022-08-11T06:33:30.622Z,2.20
2022-08-11T06:36:06.866Z,2.22
2022-08-11T06:38:54.806Z,2.03
2022-08-11T06:41:31.938Z,1.88
2022-08-11T06:44:29.105Z,2.00
2022-08-11T06:47:08.067Z,2.05
2022-08-11T06:49:56.675Z,1.80
2022-08-11T06:52:44.049Z,1.80
2022-08-11T06:55:56.787Z,1.80
2022-08-11T06:58:45.281Z,2.05
2022-08-11T07:01:22.515Z,1.70
2022-08-11T07:04:07.977Z,2.00
2022-08-11T07:07:11.312Z,2.10
2022-08-11T07:10:22.621Z,2.05
2022-08-11T07:13:44.575Z,2.13
2022-08-11T07:16:11.317Z,1.70
2022-08-11T07:19:00.679Z,2.00
2022-08-11T07:22:03.182Z,1.90
2022-08-11T07:24:58.595Z,2.20
2022-08-11T07:27:54.391Z,1.90
2022-08-11T07:30:22.422Z,2.15
2022-08-11T07:32:52.806Z,2.00
2022-08-11T07:35:25.462Z,1.77
2022-08-11T07:38:02.172Z,1.60
2022-08-11T07:40:32.311Z,2.20
2022-08-11T07:43:02.276Z,1.90
2022-08-11T07:45:48.809Z,2.10
2022-08-11T07:48:35.053Z,1.63
2022-08-11T07:51:21.530Z,2.10
2022-08-11T07:53:58.700Z,2.00
2022-08-11T07:56:55.383Z,1.88
2022-08-11T08:00:00.632Z,1.83
2022-08-11T08:02:58.542Z,1.90
2022-08-11T08:05:44.702Z,1.80
2022-08-11T08:08:33.074Z,1.88
2022-08-11T08:11:23.994Z,1.75
2022-08-11T08:14:14.101Z,1.88
2022-08-11T08:17:00.730Z,1.70
2022-08-11T08:19:29.370Z,1.95
2022-08-11T08:22:37.456Z,1.80
2022-08-11T08:24:46.380Z,1.75
2022-08-11T08:27:16.320Z,1.83
2022-08-11T08:30:04.054Z,1.70
2022-08-11T08:32:35.056Z,1.70
2022-08-11T08:35:05.464Z,2.25
2022-08-11T08:37:45.685Z,1.60
2022-08-11T08:40:16.043Z,2.00
2022-08-11T08:42:51.410Z,1.70
2022-08-11T08:45:20.167Z,2.05
2022-08-11T08:47:53.449Z,1.88
2022-08-11T08:50:27.705Z,1.50
2022-08-11T08:52:59.311Z,1.52
2022-08-11T08:55:29.655Z,1.85
2022-08-11T08:58:01.035Z,1.83
2022-08-11T09:00:40.613Z,1.40
2022-08-11T09:03:36.625Z,1.63
2022-08-11T09:05:58.439Z,1.30
2022-08-11T09:08:27.479Z,1.60
2022-08-11T09:11:14.488Z,1.70
2022-08-11T09:13:45.987Z,1.60
2022-08-11T09:16:31.732Z,1.52
2022-08-11T09:19:02.317Z,1.60
2022-08-11T09:21:46.499Z,1.60
2022-08-11T09:24:36.149Z,1.45
2022-08-11T09:27:07.103Z,1.35
2022-08-11T09:29:38.909Z,1.50
2022-08-11T09:32:08.790Z,1.55
2022-08-11T09:34:38.161Z,1.58
2022-08-11T09:37:54.945Z,1.58
2022-08-11T09:40:33.617Z,1.63
2022-08-11T09:43:23.658Z,2.25
2022-08-11T09:45:55.524Z,1.60
2022-08-11T09:48:26.148Z,1.50
2022-08-11T09:50:56.226Z,1.40
2022-08-11T09:53:41.065Z,1.55
2022-08-11T09:56:34.341Z,1.50
2022-08-11T09:59:04.328Z,1.70
2022-08-11T10:01:41.617Z,1.70
2022-08-11T10:04:16.214Z,1.50
2022-08-11T10:07:04.171Z,1.60
2022-08-11T10:09:39.053Z,1.42
2022-08-11T10:12:11.589Z,1.50
2022-08-11T10:15:02.667Z,1.80
2022-08-11T10:18:06.235Z,1.60
2022-08-11T10:26:00.148Z,1.75
2022-08-11T10:28:33.590Z,1.50
2022-08-11T10:31:36.291Z,1.60
2022-08-11T10:34:16.552Z,1.80
2022-08-11T10:36:48.178Z,1.48
2022-08-11T10:39:21.193Z,1.60
2022-08-11T10:42:10.791Z,1.60
2022-08-11T10:44:46.474Z,1.67
2022-08-11T10:47:46.797Z,1.65
2022-08-11T10:50:36.813Z,1.58
2022-08-11T10:53:22.527Z,1.50
2022-08-11T10:56:08.699Z,1.58
2022-08-11T10:58:48.682Z,1.60
2022-08-11T11:01:20.235Z,1.50
2022-08-11T11:03:49.132Z,1.40
2022-08-11T11:06:28.388Z,1.58
2022-08-11T11:09:04.573Z,1.70
2022-08-11T11:11:55.340Z,1.60
2022-08-11T11:14:46.786Z,1.50
2022-08-11T11:21:45.269Z,1.95
2022-08-11T11:24:22.495Z,1.83
2022-08-11T11:26:56.755Z,1.90
2022-08-11T11:29:52.982Z,3.53
2022-08-11T11:32:28.800Z,1.60
2022-08-11T11:35:18.965Z,2.20
2022-08-11T11:38:03.902Z,1.58
2022-08-11T11:45:37.353Z,1.80
2022-08-11T11:58:06.324Z,1.70
2022-08-11T12:05:16.353Z,1.95
2022-08-11T12:08:29.135Z,1.77
2022-08-11T12:28:58.500Z,1.90
2022-08-11T12:31:58.702Z,2.03
2022-08-11T12:35:35.361Z,1.65
2022-08-11T12:38:35.563Z,1.50
2022-08-11T12:45:58.795Z,1.92
2022-08-11T12:52:27.908Z,2.08
2022-08-11T12:55:20.996Z,1.75
2022-08-11T13:10:52.964Z,1.90
2022-08-11T13:24:00.461Z,2.20
2022-08-11T13:46:42.177Z,1.88
2022-08-11T13:49:54.693Z,1.70
2022-08-11T13:55:51.047Z,1.58
2022-08-11T13:58:40.104Z,1.52
2022-08-11T14:02:22.744Z,1.77
2022-08-11T14:05:46.799Z,1.95
2022-08-11T14:09:15.450Z,2.10
2022-08-11T14:12:23.487Z,1.58
2022-08-11T14:35:13.047Z,1.83
2022-08-11T14:50:28.332Z,1.65
2022-08-11T14:54:11.111Z,1.90
2022-08-11T14:56:38.803Z,2.15
2022-08-11T14:59:08.107Z,1.80
2022-08-11T15:02:07.497Z,1.83
2022-08-11T15:17:13.940Z,1.73
2022-08-11T15:20:34.012Z,1.95
2022-08-11T15:23:32.611Z,1.80
2022-08-11T15:26:46.806Z,1.60
2022-08-11T15:33:38.697Z,1.92
2022-08-11T15:36:42.966Z,1.95
2022-08-11T15:39:51.904Z,1.90
2022-08-11T15:50:14.100Z,1.88
2022-08-11T15:57:51.036Z,1.75
2022-08-11T16:01:01.253Z,1.60
2022-08-11T16:04:15.409Z,1.90
2022-08-11T16:15:04.850Z,1.73
2022-08-11T16:17:55.048Z,1.92
2022-08-11T16:21:26.143Z,1.70
2022-08-11T16:37:20.029Z,1.88
2022-08-11T16:40:01.268Z,1.70
2022-08-11T16:43:22.764Z,1.67
2022-08-11T16:46:34.022Z,1.75
2022-08-11T16:49:04.064Z,2.25
2022-08-11T16:51:33.431Z,1.67
2022-08-11T16:54:05.097Z,1.90
2022-08-11T16:56:52.172Z,1.73
2022-08-11T17:21:23.073Z,2.10
2022-08-11T17:23:55.108Z,1.70
2022-08-11T17:26:49.512Z,1.88
2022-08-11T17:29:24.818Z,1.98
2022-08-11T17:32:16.072Z,1.83
2022-08-11T17:35:32.459Z,2.42
2022-08-11T17:38:07.753Z,2.05
2022-08-11T17:40:38.736Z,1.70
2022-08-11T17:47:40.809Z,2.42
2022-08-11T17:51:21.771Z,1.90
2022-08-11T17:55:17.116Z,2.15
2022-08-11T17:58:27.079Z,1.85
2022-08-11T18:01:01.994Z,2.05
2022-08-11T18:03:41.033Z,1.90
2022-08-11T18:06:13.226Z,1.83
2022-08-11T18:09:02.600Z,1.88
2022-08-11T18:12:07.162Z,1.80
2022-08-11T18:14:57.966Z,1.88
2022-08-11T18:17:43.742Z,1.98
2022-08-11T18:20:30.975Z,1.70
2022-08-11T18:23:20.555Z,2.00
2022-08-11T18:26:07.243Z,1.80
2022-08-11T18:28:58.684Z,2.30
2022-08-11T18:31:45.443Z,2.00
2022-08-11T18:34:39.167Z,2.00
2022-08-11T18:37:31.393Z,2.47
2022-08-11T18:40:20.254Z,1.92
2022-08-11T18:43:07.246Z,2.22
2022-08-11T18:46:06.410Z,2.10
2022-08-11T18:48:55.138Z,1.98
2022-08-11T18:51:42.690Z,2.38
2022-08-11T18:54:31.289Z,2.47
2022-08-11T18:57:21.370Z,2.10
2022-08-11T19:00:10.834Z,2.20
2022-08-11T19:02:58.122Z,1.90
2022-08-11T19:06:08.396Z,2.40
2022-08-11T19:08:57.244Z,2.50
2022-08-11T19:11:47.386Z,2.30
2022-08-11T19:14:33.507Z,2.33
2022-08-11T19:17:44.022Z,2.25
2022-08-11T19:20:29.136Z,2.30
2022-08-11T19:23:16.015Z,2.28
2022-08-11T19:26:02.335Z,2.22
2022-08-11T19:28:50.488Z,2.17
2022-08-11T19:31:42.306Z,2.13
2022-08-11T19:34:32.352Z,2.50
2022-08-11T19:37:22.159Z,2.28
2022-08-11T19:40:11.835Z,2.67
2022-08-11T19:42:58.632Z,2.47
2022-08-11T19:45:51.626Z,2.42
2022-08-11T19:48:40.505Z,2.30
2022-08-11T19:51:27.356Z,2.60
2022-08-11T19:54:13.842Z,2.33
2022-08-11T19:57:00.905Z,2.92
2022-08-11T19:59:47.312Z,2.17
2022-08-11T20:02:34.019Z,2.50
2022-08-11T20:05:19.770Z,2.53
2022-08-11T20:08:06.482Z,2.63
2022-08-11T20:10:53.524Z,2.35
2022-08-11T20:13:41.649Z,2.35
2022-08-11T20:16:32.625Z,2.83
2022-08-11T20:19:26.142Z,2.22
2022-08-11T20:22:26.640Z,2.67
2022-08-11T20:25:13.993Z,2.58
2022-08-11T20:28:01.829Z,2.45
2022-08-11T20:30:51.908Z,2.70
2022-08-11T20:33:39.071Z,2.33
2022-08-11T20:36:27.272Z,2.60
2022-08-11T20:39:14.656Z,2.33
2022-08-11T20:42:01.048Z,2.35
2022-08-11T20:44:48.829Z,2.20
2022-08-11T20:47:59.822Z,2.50
2022-08-11T20:50:45.819Z,2.30
2022-08-11T20:53:36.063Z,2.83
2022-08-11T20:56:28.847Z,2.60
2022-08-11T20:59:18.309Z,2.60
2022-08-11T21:02:09.799Z,2.80
2022-08-11T21:04:57.021Z,3.15
2022-08-11T21:07:56.643Z,2.50
2022-08-11T21:10:50.620Z,2.70
2022-08-11T21:13:39.202Z,2.42
2022-08-11T21:16:27.175Z,2.35
2022-08-11T21:19:18.847Z,2.83
2022-08-11T21:22:28.085Z,2.88
2022-08-11T21:25:29.284Z,2.70
2022-08-11T21:28:20.748Z,2.58
2022-08-11T21:31:08.685Z,2.50
2022-08-11T21:33:55.605Z,2.80
2022-08-11T21:36:43.332Z,2.80
2022-08-11T21:39:32.062Z,2.60
2022-08-11T21:42:19.730Z,2.58
2022-08-11T21:45:07.755Z,2.70
2022-08-11T21:48:00.871Z,2.80
2022-08-11T21:50:46.674Z,2.80
2022-08-11T21:53:33.473Z,2.70
2022-08-11T21:56:19.773Z,2.75
2022-08-11T21:59:07.782Z,2.67
2022-08-11T22:01:55.290Z,2.60
2022-08-11T22:04:41.782Z,2.80
2022-08-11T22:07:28.074Z,2.53
2022-08-11T22:10:40.438Z,2.45
2022-08-11T22:13:19.712Z,2.78
2022-08-11T22:16:05.700Z,2.55
2022-08-11T22:18:54.718Z,2.90
2022-08-11T22:22:02.791Z,2.70
2022-08-11T22:24:48.529Z,2.92
2022-08-11T22:27:33.956Z,2.63
2022-08-11T22:30:19.330Z,3.33
2022-08-11T22:33:05.830Z,2.70
2022-08-11T22:35:54.030Z,2.75
2022-08-11T22:38:40.335Z,2.85
2022-08-11T22:41:25.606Z,2.90
2022-08-11T22:44:11.119Z,2.85
2022-08-11T22:46:56.958Z,2.80
2022-08-11T22:49:57.732Z,3.17
2022-08-11T22:52:47.266Z,2.92
2022-08-11T22:55:33.522Z,2.83
2022-08-11T22:58:20.582Z,2.72
2022-08-11T23:01:06.961Z,3.00
2022-08-11T23:03:53.148Z,3.03
2022-08-11T23:06:39.234Z,3.10
2022-08-11T23:09:27.704Z,3.00
2022-08-11T23:12:14.008Z,2.90
2022-08-11T23:15:00.304Z,2.85
2022-08-11T23:17:46.947Z,3.25
2022-08-11T23:20:43.437Z,2.97
2022-08-11T23:23:41.676Z,3.17
2022-08-11T23:26:30.035Z,3.20
2022-08-11T23:29:17.560Z,3.05
2022-08-11T23:32:04.151Z,3.10
2022-08-11T23:35:03.599Z,3.05
2022-08-11T23:37:51.386Z,2.90
2022-08-11T23:40:37.197Z,3.10
2022-08-11T23:43:25.274Z,3.38
2022-08-11T23:46:11.010Z,3.25
2022-08-11T23:48:57.984Z,3.10
2022-08-11T23:51:46.020Z,2.70
2022-08-11T23:54:37.118Z,3.20
2022-08-11T23:57:23.978Z,3.03
